sensor_id;sensor_type;location;lat;lon;timestamp;temperature;humidity
84008;DHT22;74070;50.948;6.954;2024-02-21T00:00:13;9.50;99.90
84008;DHT22;74070;50.948;6.954;2024-02-21T00:02:40;9.40;99.90
84008;DHT22;74070;50.948;6.954;2024-02-21T00:05:07;9.50;99.90
84008;DHT22;74070;50.948;6.954;2024-02-21T00:07:33;9.50;99.90
84008;DHT22;74070;50.948;6.954;2024-02-21T00:10:00;9.50;99.90
84008;DHT22;74070;50.948;6.954;2024-02-21T00:12:26;9.50;99.90
84008;DHT22;74070;50.948;6.954;2024-02-21T00:14:53;9.50;99.90
84008;DHT22;74070;50.948;6.954;2024-02-21T00:17:20;9.40;99.90
84008;DHT22;74070;50.948;6.954;2024-02-21T00:19:46;9.50;99.90
84008;DHT22;74070;50.948;6.954;2024-02-21T00:22:14;9.50;99.90
84008;DHT22;74070;50.948;6.954;2024-02-21T00:24:41;9.50;99.90
84008;DHT22;74070;50.948;6.954;2024-02-21T00:27:08;9.50;99.90
84008;DHT22;74070;50.948;6.954;2024-02-21T00:29:36;9.50;99.90
84008;DHT22;74070;50.948;6.954;2024-02-21T00:32:03;9.50;99.90
84008;DHT22;74070;50.948;6.954;2024-02-21T00:34:30;9.40;99.90
84008;DHT22;74070;50.948;6.954;2024-02-21T00:36:57;9.40;99.90
84008;DHT22;74070;50.948;6.954;2024-02-21T00:39:25;9.40;99.90
84008;DHT22;74070;50.948;6.954;2024-02-21T00:41:52;9.40;99.90
84008;DHT22;74070;50.948;6.954;2024-02-21T00:44:19;9.40;99.90
84008;DHT22;74070;50.948;6.954;2024-02-21T00:46:45;9.40;99.90
84008;DHT22;74070;50.948;6.954;2024-02-21T00:49:12;9.40;99.90
84008;DHT22;74070;50.948;6.954;2024-02-21T00:51:38;9.40;99.90
84008;DHT22;74070;50.948;6.954;2024-02-21T00:54:05;9.40;99.90
84008;DHT22;74070;50.948;6.954;2024-02-21T00:56:32;9.40;99.90
84008;DHT22;74070;50.948;6.954;2024-02-21T00:59:00;9.40;99.90
84008;DHT22;74070;50.948;6.954;2024-02-21T01:01:27;9.30;99.90
84008;DHT22;74070;50.948;6.954;2024-02-21T01:03:54;9.30;99.90
84008;DHT22;74070;50.948;6.954;2024-02-21T01:06:20;9.30;99.90
84008;DHT22;74070;50.948;6.954;2024-02-21T01:08:47;9.30;99.90
84008;DHT22;74070;50.948;6.954;2024-02-21T01:11:15;9.30;99.90
84008;DHT22;74070;50.948;6.954;2024-02-21T01:13:42;9.30;99.90
84008;DHT22;74070;50.948;6.954;2024-02-21T01:16:10;9.30;99.90
84008;DHT22;74070;50.948;6.954;2024-02-21T01:18:37;9.30;99.90
84008;DHT22;74070;50.948;6.954;2024-02-21T01:21:05;9.30;99.90
84008;DHT22;74070;50.948;6.954;2024-02-21T01:23:33;9.30;99.90
84008;DHT22;74070;50.948;6.954;2024-02-21T01:26:00;9.30;99.90
84008;DHT22;74070;50.948;6.954;2024-02-21T01:28:26;9.30;99.90
84008;DHT22;74070;50.948;6.954;2024-02-21T01:30:53;9.30;99.90
84008;DHT22;74070;50.948;6.954;2024-02-21T01:33:20;9.30;99.90
84008;DHT22;74070;50.948;6.954;2024-02-21T01:35:46;9.40;99.90
84008;DHT22;74070;50.948;6.954;2024-02-21T01:38:13;9.30;99.90
84008;DHT22;74070;50.948;6.954;2024-02-21T01:40:39;9.40;99.90
84008;DHT22;74070;50.948;6.954;2024-02-21T01:43:15;9.40;99.90
84008;DHT22;74070;50.948;6.954;2024-02-21T01:45:33;9.40;99.90
84008;DHT22;74070;50.948;6.954;2024-02-21T01:47:59;9.30;99.90
84008;DHT22;74070;50.948;6.954;2024-02-21T01:50:26;9.30;99.90
84008;DHT22;74070;50.948;6.954;2024-02-21T01:52:54;9.40;99.90
84008;DHT22;74070;50.948;6.954;2024-02-21T01:55:21;9.40;99.90
84008;DHT22;74070;50.948;6.954;2024-02-21T01:57:49;9.30;99.90
84008;DHT22;74070;50.948;6.954;2024-02-21T02:00:16;9.30;99.90
84008;DHT22;74070;50.948;6.954;2024-02-21T02:02:43;9.30;99.90
84008;DHT22;74070;50.948;6.954;2024-02-21T02:05:09;9.30;99.90
84008;DHT22;74070;50.948;6.954;2024-02-21T02:07:36;9.30;99.90
84008;DHT22;74070;50.948;6.954;2024-02-21T02:10:03;9.40;99.90
84008;DHT22;74070;50.948;6.954;2024-02-21T02:12:29;9.30;99.90
84008;DHT22;74070;50.948;6.954;2024-02-21T02:14:58;9.30;99.90
84008;DHT22;74070;50.948;6.954;2024-02-21T02:17:23;9.30;99.90
84008;DHT22;74070;50.948;6.954;2024-02-21T02:19:51;9.30;99.90
84008;DHT22;74070;50.948;6.954;2024-02-21T02:22:19;9.30;99.90
84008;DHT22;74070;50.948;6.954;2024-02-21T02:24:44;9.30;99.90
84008;DHT22;74070;50.948;6.954;2024-02-21T02:27:10;9.30;99.90
84008;DHT22;74070;50.948;6.954;2024-02-21T02:29:37;9.30;99.90
84008;DHT22;74070;50.948;6.954;2024-02-21T02:32:04;9.30;99.90
84008;DHT22;74070;50.948;6.954;2024-02-21T02:34:31;9.20;99.90
84008;DHT22;74070;50.948;6.954;2024-02-21T02:36:57;9.20;99.90
84008;DHT22;74070;50.948;6.954;2024-02-21T02:39:24;9.10;99.90
84008;DHT22;74070;50.948;6.954;2024-02-21T02:41:51;9.10;99.90
84008;DHT22;74070;50.948;6.954;2024-02-21T02:44:18;9.00;99.90
84008;DHT22;74070;50.948;6.954;2024-02-21T02:46:45;9.00;99.90
84008;DHT22;74070;50.948;6.954;2024-02-21T02:49:12;9.00;99.90
84008;DHT22;74070;50.948;6.954;2024-02-21T02:51:41;8.90;99.90
84008;DHT22;74070;50.948;6.954;2024-02-21T02:54:07;8.90;99.90
84008;DHT22;74070;50.948;6.954;2024-02-21T02:56:34;8.90;99.90
84008;DHT22;74070;50.948;6.954;2024-02-21T02:59:01;9.00;99.90
84008;DHT22;74070;50.948;6.954;2024-02-21T03:01:29;8.90;99.90
84008;DHT22;74070;50.948;6.954;2024-02-21T03:03:56;8.90;99.90
84008;DHT22;74070;50.948;6.954;2024-02-21T03:06:23;8.90;99.90
84008;DHT22;74070;50.948;6.954;2024-02-21T03:08:51;8.90;99.90
84008;DHT22;74070;50.948;6.954;2024-02-21T03:11:18;8.90;99.90
84008;DHT22;74070;50.948;6.954;2024-02-21T03:13:45;8.90;99.90
84008;DHT22;74070;50.948;6.954;2024-02-21T03:16:12;8.90;99.90
84008;DHT22;74070;50.948;6.954;2024-02-21T03:18:39;8.90;99.90
84008;DHT22;74070;50.948;6.954;2024-02-21T03:21:05;8.90;99.90
84008;DHT22;74070;50.948;6.954;2024-02-21T03:23:32;8.90;99.90
84008;DHT22;74070;50.948;6.954;2024-02-21T03:25:58;8.90;99.90
84008;DHT22;74070;50.948;6.954;2024-02-21T03:28:25;8.90;99.90
84008;DHT22;74070;50.948;6.954;2024-02-21T03:30:52;8.90;99.90
84008;DHT22;74070;50.948;6.954;2024-02-21T03:33:18;8.90;99.90
84008;DHT22;74070;50.948;6.954;2024-02-21T03:35:45;8.90;99.90
84008;DHT22;74070;50.948;6.954;2024-02-21T03:38:12;8.80;99.90
84008;DHT22;74070;50.948;6.954;2024-02-21T03:40:39;8.80;99.90
84008;DHT22;74070;50.948;6.954;2024-02-21T03:43:05;8.80;99.90
84008;DHT22;74070;50.948;6.954;2024-02-21T03:45:33;8.90;99.90
84008;DHT22;74070;50.948;6.954;2024-02-21T03:48:00;9.00;99.90
84008;DHT22;74070;50.948;6.954;2024-02-21T03:50:27;9.00;99.90
84008;DHT22;74070;50.948;6.954;2024-02-21T03:52:55;9.00;99.90
84008;DHT22;74070;50.948;6.954;2024-02-21T03:55:21;8.90;99.90
84008;DHT22;74070;50.948;6.954;2024-02-21T03:57:48;9.00;99.90
84008;DHT22;74070;50.948;6.954;2024-02-21T04:00:15;9.00;99.90
84008;DHT22;74070;50.948;6.954;2024-02-21T04:02:42;9.00;99.90
84008;DHT22;74070;50.948;6.954;2024-02-21T04:05:08;8.90;99.90
84008;DHT22;74070;50.948;6.954;2024-02-21T04:07:35;8.90;99.90
84008;DHT22;74070;50.948;6.954;2024-02-21T04:10:01;8.90;99.90
84008;DHT22;74070;50.948;6.954;2024-02-21T04:12:28;8.80;99.90
84008;DHT22;74070;50.948;6.954;2024-02-21T04:14:54;8.90;99.90
84008;DHT22;74070;50.948;6.954;2024-02-21T04:17:21;8.90;99.90
84008;DHT22;74070;50.948;6.954;2024-02-21T04:19:47;8.90;99.90
84008;DHT22;74070;50.948;6.954;2024-02-21T04:22:15;8.90;99.90
84008;DHT22;74070;50.948;6.954;2024-02-21T04:24:42;8.90;99.90
84008;DHT22;74070;50.948;6.954;2024-02-21T04:27:09;8.90;99.90
84008;DHT22;74070;50.948;6.954;2024-02-21T04:29:35;8.90;99.90
84008;DHT22;74070;50.948;6.954;2024-02-21T04:32:02;9.30;99.90
84008;DHT22;74070;50.948;6.954;2024-02-21T04:34:29;8.90;99.90
84008;DHT22;74070;50.948;6.954;2024-02-21T04:36:55;8.80;99.90
84008;DHT22;74070;50.948;6.954;2024-02-21T04:39:22;8.80;99.90
84008;DHT22;74070;50.948;6.954;2024-02-21T04:41:48;8.80;99.90
84008;DHT22;74070;50.948;6.954;2024-02-21T04:44:15;8.80;99.90
84008;DHT22;74070;50.948;6.954;2024-02-21T04:46:43;8.80;99.90
84008;DHT22;74070;50.948;6.954;2024-02-21T04:49:09;8.80;99.90
84008;DHT22;74070;50.948;6.954;2024-02-21T04:51:36;8.80;99.90
84008;DHT22;74070;50.948;6.954;2024-02-21T04:54:02;8.80;99.90
84008;DHT22;74070;50.948;6.954;2024-02-21T04:56:29;8.80;99.90
84008;DHT22;74070;50.948;6.954;2024-02-21T04:58:55;8.80;99.90
84008;DHT22;74070;50.948;6.954;2024-02-21T05:01:22;8.80;99.90
84008;DHT22;74070;50.948;6.954;2024-02-21T05:03:49;8.80;99.90
84008;DHT22;74070;50.948;6.954;2024-02-21T05:06:15;8.80;99.90
84008;DHT22;74070;50.948;6.954;2024-02-21T05:08:43;8.80;99.90
84008;DHT22;74070;50.948;6.954;2024-02-21T05:11:10;8.80;99.90
84008;DHT22;74070;50.948;6.954;2024-02-21T05:13:37;8.80;99.90
84008;DHT22;74070;50.948;6.954;2024-02-21T05:16:05;8.80;99.90
84008;DHT22;74070;50.948;6.954;2024-02-21T05:18:32;8.70;99.90
84008;DHT22;74070;50.948;6.954;2024-02-21T05:20:58;8.80;99.90
84008;DHT22;74070;50.948;6.954;2024-02-21T05:23:25;8.80;99.90
84008;DHT22;74070;50.948;6.954;2024-02-21T05:25:51;8.90;99.90
84008;DHT22;74070;50.948;6.954;2024-02-21T05:28:18;8.90;99.90
84008;DHT22;74070;50.948;6.954;2024-02-21T05:30:45;8.90;99.90
84008;DHT22;74070;50.948;6.954;2024-02-21T05:33:11;8.90;99.90
84008;DHT22;74070;50.948;6.954;2024-02-21T05:35:38;8.90;99.90
84008;DHT22;74070;50.948;6.954;2024-02-21T05:38:04;8.90;99.90
84008;DHT22;74070;50.948;6.954;2024-02-21T05:40:31;8.90;99.90
84008;DHT22;74070;50.948;6.954;2024-02-21T05:42:58;8.90;99.90
84008;DHT22;74070;50.948;6.954;2024-02-21T05:45:24;9.00;99.90
84008;DHT22;74070;50.948;6.954;2024-02-21T05:47:51;9.00;99.90
84008;DHT22;74070;50.948;6.954;2024-02-21T05:50:17;9.00;99.90
84008;DHT22;74070;50.948;6.954;2024-02-21T05:52:44;9.00;99.90
84008;DHT22;74070;50.948;6.954;2024-02-21T05:55:10;9.00;99.90
84008;DHT22;74070;50.948;6.954;2024-02-21T05:57:37;9.00;99.90
84008;DHT22;74070;50.948;6.954;2024-02-21T06:00:05;9.00;99.90
84008;DHT22;74070;50.948;6.954;2024-02-21T06:02:31;8.90;99.90
84008;DHT22;74070;50.948;6.954;2024-02-21T06:04:57;8.90;99.90
84008;DHT22;74070;50.948;6.954;2024-02-21T06:07:24;8.90;99.90
84008;DHT22;74070;50.948;6.954;2024-02-21T06:09:50;8.80;99.90
84008;DHT22;74070;50.948;6.954;2024-02-21T06:12:17;8.80;99.90
84008;DHT22;74070;50.948;6.954;2024-02-21T06:14:44;8.80;99.90
84008;DHT22;74070;50.948;6.954;2024-02-21T06:17:10;8.80;99.90
84008;DHT22;74070;50.948;6.954;2024-02-21T06:19:39;8.80;99.90
84008;DHT22;74070;50.948;6.954;2024-02-21T06:22:05;8.80;99.90
84008;DHT22;74070;50.948;6.954;2024-02-21T06:24:32;8.80;99.90
84008;DHT22;74070;50.948;6.954;2024-02-21T06:26:59;8.80;99.90
84008;DHT22;74070;50.948;6.954;2024-02-21T06:29:27;8.80;99.90
84008;DHT22;74070;50.948;6.954;2024-02-21T06:31:53;8.70;99.90
84008;DHT22;74070;50.948;6.954;2024-02-21T06:34:21;8.80;99.90
84008;DHT22;74070;50.948;6.954;2024-02-21T06:36:47;8.80;99.90
84008;DHT22;74070;50.948;6.954;2024-02-21T06:39:14;8.80;99.90
84008;DHT22;74070;50.948;6.954;2024-02-21T06:41:41;8.80;99.90
84008;DHT22;74070;50.948;6.954;2024-02-21T06:44:07;8.80;99.90
84008;DHT22;74070;50.948;6.954;2024-02-21T06:46:34;8.80;99.90
84008;DHT22;74070;50.948;6.954;2024-02-21T06:49:01;8.80;99.90
84008;DHT22;74070;50.948;6.954;2024-02-21T06:51:28;8.90;99.90
84008;DHT22;74070;50.948;6.954;2024-02-21T06:53:55;8.90;99.90
84008;DHT22;74070;50.948;6.954;2024-02-21T06:56:23;8.90;99.90
84008;DHT22;74070;50.948;6.954;2024-02-21T06:58:49;8.90;99.90
84008;DHT22;74070;50.948;6.954;2024-02-21T07:01:16;8.90;99.90
84008;DHT22;74070;50.948;6.954;2024-02-21T07:03:42;9.00;99.90
84008;DHT22;74070;50.948;6.954;2024-02-21T07:06:09;9.00;99.90
84008;DHT22;74070;50.948;6.954;2024-02-21T07:08:35;9.00;99.90
84008;DHT22;74070;50.948;6.954;2024-02-21T07:11:02;9.00;99.90
84008;DHT22;74070;50.948;6.954;2024-02-21T07:13:29;9.00;99.90
84008;DHT22;74070;50.948;6.954;2024-02-21T07:15:55;9.00;99.90
84008;DHT22;74070;50.948;6.954;2024-02-21T07:18:22;9.00;99.90
84008;DHT22;74070;50.948;6.954;2024-02-21T07:20:49;9.00;99.90
84008;DHT22;74070;50.948;6.954;2024-02-21T07:23:17;9.00;99.90
84008;DHT22;74070;50.948;6.954;2024-02-21T07:25:44;9.00;99.90
84008;DHT22;74070;50.948;6.954;2024-02-21T07:28:11;9.00;99.90
84008;DHT22;74070;50.948;6.954;2024-02-21T07:30:37;9.00;99.90
84008;DHT22;74070;50.948;6.954;2024-02-21T07:33:04;9.00;99.90
84008;DHT22;74070;50.948;6.954;2024-02-21T07:35:30;9.00;99.90
84008;DHT22;74070;50.948;6.954;2024-02-21T07:37:57;9.00;99.90
84008;DHT22;74070;50.948;6.954;2024-02-21T07:40:24;9.00;99.90
84008;DHT22;74070;50.948;6.954;2024-02-21T07:42:50;9.00;99.90
84008;DHT22;74070;50.948;6.954;2024-02-21T07:45:17;9.00;99.90
84008;DHT22;74070;50.948;6.954;2024-02-21T07:47:45;9.00;99.90
84008;DHT22;74070;50.948;6.954;2024-02-21T07:50:12;9.00;99.90
84008;DHT22;74070;50.948;6.954;2024-02-21T07:52:39;9.00;99.90
84008;DHT22;74070;50.948;6.954;2024-02-21T07:55:05;9.00;99.90
84008;DHT22;74070;50.948;6.954;2024-02-21T07:57:32;9.00;99.90
84008;DHT22;74070;50.948;6.954;2024-02-21T07:59:59;9.00;99.90
84008;DHT22;74070;50.948;6.954;2024-02-21T08:02:25;9.00;99.90
84008;DHT22;74070;50.948;6.954;2024-02-21T08:04:52;9.00;99.90
84008;DHT22;74070;50.948;6.954;2024-02-21T08:07:18;9.00;99.90
84008;DHT22;74070;50.948;6.954;2024-02-21T08:09:45;9.00;99.90
84008;DHT22;74070;50.948;6.954;2024-02-21T08:12:12;9.10;99.90
84008;DHT22;74070;50.948;6.954;2024-02-21T08:14:38;9.10;99.90
84008;DHT22;74070;50.948;6.954;2024-02-21T08:17:05;9.10;99.90
84008;DHT22;74070;50.948;6.954;2024-02-21T08:19:31;9.10;99.90
84008;DHT22;74070;50.948;6.954;2024-02-21T08:21:58;9.00;99.90
84008;DHT22;74070;50.948;6.954;2024-02-21T08:24:24;9.10;99.90
84008;DHT22;74070;50.948;6.954;2024-02-21T08:26:51;9.10;99.90
84008;DHT22;74070;50.948;6.954;2024-02-21T08:29:18;9.20;99.90
84008;DHT22;74070;50.948;6.954;2024-02-21T08:31:44;9.20;99.90
84008;DHT22;74070;50.948;6.954;2024-02-21T08:34:11;9.20;99.90
84008;DHT22;74070;50.948;6.954;2024-02-21T08:36:37;9.30;99.90
84008;DHT22;74070;50.948;6.954;2024-02-21T08:39:04;9.30;99.90
84008;DHT22;74070;50.948;6.954;2024-02-21T08:41:31;9.40;99.90
84008;DHT22;74070;50.948;6.954;2024-02-21T08:43:57;9.40;99.90
84008;DHT22;74070;50.948;6.954;2024-02-21T08:46:24;9.50;99.90
84008;DHT22;74070;50.948;6.954;2024-02-21T08:48:50;9.60;99.90
84008;DHT22;74070;50.948;6.954;2024-02-21T08:51:18;9.80;99.90
84008;DHT22;74070;50.948;6.954;2024-02-21T08:53:45;9.90;99.90
84008;DHT22;74070;50.948;6.954;2024-02-21T08:56:12;9.90;99.90
84008;DHT22;74070;50.948;6.954;2024-02-21T08:58:39;10.00;99.90
84008;DHT22;74070;50.948;6.954;2024-02-21T09:01:06;10.10;99.90
84008;DHT22;74070;50.948;6.954;2024-02-21T09:03:33;10.10;99.90
84008;DHT22;74070;50.948;6.954;2024-02-21T09:06:00;10.20;99.90
84008;DHT22;74070;50.948;6.954;2024-02-21T09:08:27;10.20;99.90
84008;DHT22;74070;50.948;6.954;2024-02-21T09:10:54;10.20;99.90
84008;DHT22;74070;50.948;6.954;2024-02-21T09:13:20;10.50;99.90
84008;DHT22;74070;50.948;6.954;2024-02-21T09:15:48;10.70;99.90
84008;DHT22;74070;50.948;6.954;2024-02-21T09:18:15;10.70;99.90
84008;DHT22;74070;50.948;6.954;2024-02-21T09:20:41;10.70;99.90
84008;DHT22;74070;50.948;6.954;2024-02-21T09:23:08;10.50;99.90
84008;DHT22;74070;50.948;6.954;2024-02-21T09:25:36;10.50;99.90
84008;DHT22;74070;50.948;6.954;2024-02-21T09:28:03;10.50;99.90
84008;DHT22;74070;50.948;6.954;2024-02-21T09:30:31;10.60;99.90
84008;DHT22;74070;50.948;6.954;2024-02-21T09:32:58;10.70;99.90
84008;DHT22;74070;50.948;6.954;2024-02-21T09:35:25;10.70;99.90
84008;DHT22;74070;50.948;6.954;2024-02-21T09:37:52;10.80;99.90
84008;DHT22;74070;50.948;6.954;2024-02-21T09:40:18;10.90;99.90
84008;DHT22;74070;50.948;6.954;2024-02-21T09:42:46;10.90;99.90
84008;DHT22;74070;50.948;6.954;2024-02-21T09:45:21;10.90;99.90
84008;DHT22;74070;50.948;6.954;2024-02-21T09:48:12;10.90;99.90
84008;DHT22;74070;50.948;6.954;2024-02-21T09:50:34;10.90;99.90
84008;DHT22;74070;50.948;6.954;2024-02-21T09:53:00;10.90;99.90
84008;DHT22;74070;50.948;6.954;2024-02-21T09:55:26;11.00;99.90
84008;DHT22;74070;50.948;6.954;2024-02-21T09:57:53;11.00;99.90
84008;DHT22;74070;50.948;6.954;2024-02-21T10:00:20;11.00;99.90
84008;DHT22;74070;50.948;6.954;2024-02-21T10:02:48;11.00;99.90
84008;DHT22;74070;50.948;6.954;2024-02-21T10:05:15;11.40;99.90
84008;DHT22;74070;50.948;6.954;2024-02-21T10:07:43;11.40;99.90
84008;DHT22;74070;50.948;6.954;2024-02-21T10:10:10;11.30;99.90
84008;DHT22;74070;50.948;6.954;2024-02-21T10:12:37;11.20;99.90
84008;DHT22;74070;50.948;6.954;2024-02-21T10:15:05;11.40;99.90
84008;DHT22;74070;50.948;6.954;2024-02-21T10:17:33;11.30;99.90
84008;DHT22;74070;50.948;6.954;2024-02-21T10:20:07;11.50;99.90
84008;DHT22;74070;50.948;6.954;2024-02-21T10:22:33;11.50;99.90
84008;DHT22;74070;50.948;6.954;2024-02-21T10:25:06;11.80;99.90
84008;DHT22;74070;50.948;6.954;2024-02-21T10:27:27;11.90;99.90
84008;DHT22;74070;50.948;6.954;2024-02-21T10:29:54;11.80;99.90
84008;DHT22;74070;50.948;6.954;2024-02-21T10:32:20;12.10;99.90
84008;DHT22;74070;50.948;6.954;2024-02-21T10:34:47;12.20;99.90
84008;DHT22;74070;50.948;6.954;2024-02-21T10:37:14;12.20;99.90
84008;DHT22;74070;50.948;6.954;2024-02-21T10:39:41;12.20;99.90
84008;DHT22;74070;50.948;6.954;2024-02-21T10:42:10;12.50;99.90
84008;DHT22;74070;50.948;6.954;2024-02-21T10:44:37;12.40;99.90
84008;DHT22;74070;50.948;6.954;2024-02-21T10:47:05;12.30;99.90
84008;DHT22;74070;50.948;6.954;2024-02-21T10:49:30;12.40;99.90
84008;DHT22;74070;50.948;6.954;2024-02-21T10:52:03;12.30;99.90
84008;DHT22;74070;50.948;6.954;2024-02-21T10:54:30;12.40;99.90
84008;DHT22;74070;50.948;6.954;2024-02-21T10:56:56;12.40;99.90
84008;DHT22;74070;50.948;6.954;2024-02-21T10:59:22;12.40;99.90
84008;DHT22;74070;50.948;6.954;2024-02-21T11:01:49;12.50;99.90
84008;DHT22;74070;50.948;6.954;2024-02-21T11:04:15;12.50;99.90
84008;DHT22;74070;50.948;6.954;2024-02-21T11:06:42;12.70;99.90
84008;DHT22;74070;50.948;6.954;2024-02-21T11:09:10;12.70;99.90
84008;DHT22;74070;50.948;6.954;2024-02-21T11:11:38;12.90;99.90
84008;DHT22;74070;50.948;6.954;2024-02-21T11:14:08;13.00;99.90
84008;DHT22;74070;50.948;6.954;2024-02-21T11:16:37;12.90;99.90
84008;DHT22;74070;50.948;6.954;2024-02-21T11:19:04;13.10;99.90
84008;DHT22;74070;50.948;6.954;2024-02-21T11:21:33;13.20;99.90
84008;DHT22;74070;50.948;6.954;2024-02-21T11:23:59;13.10;99.90
84008;DHT22;74070;50.948;6.954;2024-02-21T11:26:27;13.20;99.90
84008;DHT22;74070;50.948;6.954;2024-02-21T11:28:57;13.20;99.90
84008;DHT22;74070;50.948;6.954;2024-02-21T11:31:23;13.20;99.90
84008;DHT22;74070;50.948;6.954;2024-02-21T11:33:49;13.50;99.90
84008;DHT22;74070;50.948;6.954;2024-02-21T11:36:23;13.70;99.90
84008;DHT22;74070;50.948;6.954;2024-02-21T11:38:50;13.00;99.90
84008;DHT22;74070;50.948;6.954;2024-02-21T11:41:17;13.00;99.90
84008;DHT22;74070;50.948;6.954;2024-02-21T11:43:44;12.90;99.90
84008;DHT22;74070;50.948;6.954;2024-02-21T11:46:10;12.70;99.90
84008;DHT22;74070;50.948;6.954;2024-02-21T11:48:38;12.90;99.90
84008;DHT22;74070;50.948;6.954;2024-02-21T11:51:04;12.90;99.90
84008;DHT22;74070;50.948;6.954;2024-02-21T11:53:31;12.90;99.90
84008;DHT22;74070;50.948;6.954;2024-02-21T11:55:57;12.90;99.90
84008;DHT22;74070;50.948;6.954;2024-02-21T11:58:24;12.80;99.90
84008;DHT22;74070;50.948;6.954;2024-02-21T12:00:51;12.90;99.90
84008;DHT22;74070;50.948;6.954;2024-02-21T12:03:18;13.10;99.90
84008;DHT22;74070;50.948;6.954;2024-02-21T12:05:45;13.00;99.90
84008;DHT22;74070;50.948;6.954;2024-02-21T12:08:11;13.20;99.90
84008;DHT22;74070;50.948;6.954;2024-02-21T12:10:39;13.50;99.90
84008;DHT22;74070;50.948;6.954;2024-02-21T12:13:07;13.40;99.90
84008;DHT22;74070;50.948;6.954;2024-02-21T12:15:33;13.30;99.90
84008;DHT22;74070;50.948;6.954;2024-02-21T12:18:00;13.20;99.90
84008;DHT22;74070;50.948;6.954;2024-02-21T12:20:26;12.90;99.90
84008;DHT22;74070;50.948;6.954;2024-02-21T12:22:53;13.00;99.90
84008;DHT22;74070;50.948;6.954;2024-02-21T12:25:21;13.10;99.90
84008;DHT22;74070;50.948;6.954;2024-02-21T12:27:47;13.30;99.90
84008;DHT22;74070;50.948;6.954;2024-02-21T12:30:15;13.30;99.90
84008;DHT22;74070;50.948;6.954;2024-02-21T12:32:41;13.30;99.90
84008;DHT22;74070;50.948;6.954;2024-02-21T12:35:07;13.60;99.90
84008;DHT22;74070;50.948;6.954;2024-02-21T12:37:34;13.10;99.90
84008;DHT22;74070;50.948;6.954;2024-02-21T12:40:01;13.30;99.90
84008;DHT22;74070;50.948;6.954;2024-02-21T12:42:27;13.40;99.90
84008;DHT22;74070;50.948;6.954;2024-02-21T12:44:54;13.20;99.90
84008;DHT22;74070;50.948;6.954;2024-02-21T12:47:21;13.40;99.90
84008;DHT22;74070;50.948;6.954;2024-02-21T12:49:48;13.40;99.90
84008;DHT22;74070;50.948;6.954;2024-02-21T12:52:14;13.50;99.90
84008;DHT22;74070;50.948;6.954;2024-02-21T12:54:41;13.50;99.90
84008;DHT22;74070;50.948;6.954;2024-02-21T12:57:08;13.10;99.90
84008;DHT22;74070;50.948;6.954;2024-02-21T12:59:34;12.80;99.90
84008;DHT22;74070;50.948;6.954;2024-02-21T13:02:01;13.00;99.90
84008;DHT22;74070;50.948;6.954;2024-02-21T13:04:27;13.40;99.90
84008;DHT22;74070;50.948;6.954;2024-02-21T13:06:54;13.70;99.90
84008;DHT22;74070;50.948;6.954;2024-02-21T13:09:21;14.00;99.90
84008;DHT22;74070;50.948;6.954;2024-02-21T13:11:48;13.70;99.90
84008;DHT22;74070;50.948;6.954;2024-02-21T13:14:14;13.70;99.90
84008;DHT22;74070;50.948;6.954;2024-02-21T13:16:41;13.60;99.90
84008;DHT22;74070;50.948;6.954;2024-02-21T13:19:08;13.50;99.90
84008;DHT22;74070;50.948;6.954;2024-02-21T13:21:35;13.60;99.90
84008;DHT22;74070;50.948;6.954;2024-02-21T13:24:01;13.80;99.90
84008;DHT22;74070;50.948;6.954;2024-02-21T13:26:27;13.70;99.90
84008;DHT22;74070;50.948;6.954;2024-02-21T13:28:55;13.90;99.90
84008;DHT22;74070;50.948;6.954;2024-02-21T13:31:22;13.50;99.90
84008;DHT22;74070;50.948;6.954;2024-02-21T13:33:49;13.90;99.90
84008;DHT22;74070;50.948;6.954;2024-02-21T13:36:15;14.20;99.90
84008;DHT22;74070;50.948;6.954;2024-02-21T13:38:42;13.90;99.90
84008;DHT22;74070;50.948;6.954;2024-02-21T13:41:09;13.90;99.90
84008;DHT22;74070;50.948;6.954;2024-02-21T13:43:35;13.90;99.90
84008;DHT22;74070;50.948;6.954;2024-02-21T13:46:03;13.60;99.90
84008;DHT22;74070;50.948;6.954;2024-02-21T13:48:30;13.30;99.90
84008;DHT22;74070;50.948;6.954;2024-02-21T13:50:57;13.20;99.90
84008;DHT22;74070;50.948;6.954;2024-02-21T13:53:24;13.10;99.90
84008;DHT22;74070;50.948;6.954;2024-02-21T13:55:50;13.10;99.90
84008;DHT22;74070;50.948;6.954;2024-02-21T13:58:17;13.10;99.90
84008;DHT22;74070;50.948;6.954;2024-02-21T14:00:44;12.90;99.90
84008;DHT22;74070;50.948;6.954;2024-02-21T14:03:12;12.90;99.90
84008;DHT22;74070;50.948;6.954;2024-02-21T14:05:39;13.00;99.90
84008;DHT22;74070;50.948;6.954;2024-02-21T14:08:06;12.90;99.90
84008;DHT22;74070;50.948;6.954;2024-02-21T14:10:33;13.10;99.90
84008;DHT22;74070;50.948;6.954;2024-02-21T14:12:59;13.20;99.90
84008;DHT22;74070;50.948;6.954;2024-02-21T14:15:26;13.30;99.90
84008;DHT22;74070;50.948;6.954;2024-02-21T14:17:52;13.30;99.90
84008;DHT22;74070;50.948;6.954;2024-02-21T14:20:19;13.20;99.90
84008;DHT22;74070;50.948;6.954;2024-02-21T14:22:46;13.10;99.90
84008;DHT22;74070;50.948;6.954;2024-02-21T14:25:13;13.00;99.90
84008;DHT22;74070;50.948;6.954;2024-02-21T14:27:39;12.90;99.90
84008;DHT22;74070;50.948;6.954;2024-02-21T14:30:06;13.20;99.90
84008;DHT22;74070;50.948;6.954;2024-02-21T14:32:33;13.10;99.90
84008;DHT22;74070;50.948;6.954;2024-02-21T14:35:00;13.10;99.90
84008;DHT22;74070;50.948;6.954;2024-02-21T14:37:26;13.20;99.90
84008;DHT22;74070;50.948;6.954;2024-02-21T14:39:53;13.10;99.90
84008;DHT22;74070;50.948;6.954;2024-02-21T14:42:20;12.90;99.90
84008;DHT22;74070;50.948;6.954;2024-02-21T14:44:48;12.90;99.90
84008;DHT22;74070;50.948;6.954;2024-02-21T14:47:15;12.90;99.90
84008;DHT22;74070;50.948;6.954;2024-02-21T14:49:42;12.90;99.90
84008;DHT22;74070;50.948;6.954;2024-02-21T14:52:08;12.80;99.90
84008;DHT22;74070;50.948;6.954;2024-02-21T14:54:35;12.90;99.90
84008;DHT22;74070;50.948;6.954;2024-02-21T14:57:01;12.90;99.90
84008;DHT22;74070;50.948;6.954;2024-02-21T14:59:28;12.90;99.90
84008;DHT22;74070;50.948;6.954;2024-02-21T15:01:55;12.80;99.90
84008;DHT22;74070;50.948;6.954;2024-02-21T15:04:23;12.80;99.90
84008;DHT22;74070;50.948;6.954;2024-02-21T15:06:50;12.80;99.90
84008;DHT22;74070;50.948;6.954;2024-02-21T15:09:17;12.70;99.90
84008;DHT22;74070;50.948;6.954;2024-02-21T15:11:45;12.80;99.90
84008;DHT22;74070;50.948;6.954;2024-02-21T15:14:11;12.70;99.90
84008;DHT22;74070;50.948;6.954;2024-02-21T15:16:38;12.80;99.90
84008;DHT22;74070;50.948;6.954;2024-02-21T15:19:05;12.70;99.90
84008;DHT22;74070;50.948;6.954;2024-02-21T15:21:31;12.70;99.90
84008;DHT22;74070;50.948;6.954;2024-02-21T15:23:58;12.70;99.90
84008;DHT22;74070;50.948;6.954;2024-02-21T15:26:24;12.70;99.90
84008;DHT22;74070;50.948;6.954;2024-02-21T15:28:51;12.70;99.90
84008;DHT22;74070;50.948;6.954;2024-02-21T15:31:20;12.60;99.90
84008;DHT22;74070;50.948;6.954;2024-02-21T15:33:46;12.60;99.90
84008;DHT22;74070;50.948;6.954;2024-02-21T15:36:12;12.60;99.90